sensor_id;sensor_type;location;lat;lon;timestamp;temperature;humidity
68251;DHT22;55066;51.560;4.642;2023-04-01T00:00:29;9.93;99.99
68251;DHT22;55066;51.560;4.642;2023-04-01T00:02:56;9.82;99.99
68251;DHT22;55066;51.560;4.642;2023-04-01T00:05:22;9.86;99.99
68251;DHT22;55066;51.560;4.642;2023-04-01T00:07:49;9.89;99.99
68251;DHT22;55066;51.560;4.642;2023-04-01T00:10:16;9.94;99.99
68251;DHT22;55066;51.560;4.642;2023-04-01T00:12:42;10.02;99.99
68251;DHT22;55066;51.560;4.642;2023-04-01T00:15:09;10.02;99.99
68251;DHT22;55066;51.560;4.642;2023-04-01T00:17:35;9.87;99.99
68251;DHT22;55066;51.560;4.642;2023-04-01T00:20:00;9.72;99.99
68251;DHT22;55066;51.560;4.642;2023-04-01T00:22:28;9.65;99.99
68251;DHT22;55066;51.560;4.642;2023-04-01T00:24:53;9.61;99.99
68251;DHT22;55066;51.560;4.642;2023-04-01T00:27:19;9.54;99.99
68251;DHT22;55066;51.560;4.642;2023-04-01T00:29:46;9.61;99.99
68251;DHT22;55066;51.560;4.642;2023-04-01T00:32:14;9.62;99.99
68251;DHT22;55066;51.560;4.642;2023-04-01T00:34:40;9.73;99.99
68251;DHT22;55066;51.560;4.642;2023-04-01T00:37:07;9.66;99.99
68251;DHT22;55066;51.560;4.642;2023-04-01T00:39:34;9.76;99.99
68251;DHT22;55066;51.560;4.642;2023-04-01T00:42:00;9.61;99.99
68251;DHT22;55066;51.560;4.642;2023-04-01T00:44:28;9.58;99.99
68251;DHT22;55066;51.560;4.642;2023-04-01T00:46:56;9.66;99.99
68251;DHT22;55066;51.560;4.642;2023-04-01T00:49:35;9.65;99.99
68251;DHT22;55066;51.560;4.642;2023-04-01T00:52:04;9.52;99.99
68251;DHT22;55066;51.560;4.642;2023-04-01T00:54:32;9.68;99.99
68251;DHT22;55066;51.560;4.642;2023-04-01T00:57:05;9.78;99.99
68251;DHT22;55066;51.560;4.642;2023-04-01T00:59:34;9.62;99.99
68251;DHT22;55066;51.560;4.642;2023-04-01T01:02:05;9.71;99.99
68251;DHT22;55066;51.560;4.642;2023-04-01T01:04:34;9.54;99.99
68251;DHT22;55066;51.560;4.642;2023-04-01T01:12:13;9.62;99.99
68251;DHT22;55066;51.560;4.642;2023-04-01T01:14:42;9.56;99.99
68251;DHT22;55066;51.560;4.642;2023-04-01T01:25:40;9.69;99.99
68251;DHT22;55066;51.560;4.642;2023-04-01T01:31:15;9.66;99.99
68251;DHT22;55066;51.560;4.642;2023-04-01T01:33:50;9.44;99.99
68251;DHT22;55066;51.560;4.642;2023-04-01T01:36:19;9.41;99.99
68251;DHT22;55066;51.560;4.642;2023-04-01T01:38:47;9.41;99.99
68251;DHT22;55066;51.560;4.642;2023-04-01T01:41:15;9.58;99.99
68251;DHT22;55066;51.560;4.642;2023-04-01T01:43:44;9.55;99.99
68251;DHT22;55066;51.560;4.642;2023-04-01T01:46:17;9.45;99.99
68251;DHT22;55066;51.560;4.642;2023-04-01T01:48:45;9.58;99.99
68251;DHT22;55066;51.560;4.642;2023-04-01T01:51:11;9.51;99.99
68251;DHT22;55066;51.560;4.642;2023-04-01T01:53:37;9.46;99.99
68251;DHT22;55066;51.560;4.642;2023-04-01T01:56:04;9.58;99.99
68251;DHT22;55066;51.560;4.642;2023-04-01T01:58:41;9.48;99.99
68251;DHT22;55066;51.560;4.642;2023-04-01T02:01:17;9.51;99.99
68251;DHT22;55066;51.560;4.642;2023-04-01T02:03:45;9.49;99.99
68251;DHT22;55066;51.560;4.642;2023-04-01T02:06:14;9.44;99.99
68251;DHT22;55066;51.560;4.642;2023-04-01T02:08:51;9.41;99.99
68251;DHT22;55066;51.560;4.642;2023-04-01T02:11:23;9.49;99.99
68251;DHT22;55066;51.560;4.642;2023-04-01T02:13:58;9.54;99.99
68251;DHT22;55066;51.560;4.642;2023-04-01T02:16:31;9.51;99.99
68251;DHT22;55066;51.560;4.642;2023-04-01T02:19:01;9.37;99.99
68251;DHT22;55066;51.560;4.642;2023-04-01T02:21:31;9.55;99.99
68251;DHT22;55066;51.560;4.642;2023-04-01T02:23:59;9.68;99.99
68251;DHT22;55066;51.560;4.642;2023-04-01T02:26:26;9.58;99.99
68251;DHT22;55066;51.560;4.642;2023-04-01T02:28:53;9.54;99.99
68251;DHT22;55066;51.560;4.642;2023-04-01T02:31:20;9.44;99.99
68251;DHT22;55066;51.560;4.642;2023-04-01T02:33:46;9.39;99.99
68251;DHT22;55066;51.560;4.642;2023-04-01T02:36:13;9.48;99.99
68251;DHT22;55066;51.560;4.642;2023-04-01T02:38:40;9.28;99.99
68251;DHT22;55066;51.560;4.642;2023-04-01T02:41:06;9.38;99.99
68251;DHT22;55066;51.560;4.642;2023-04-01T02:43:32;9.35;99.99
68251;DHT22;55066;51.560;4.642;2023-04-01T02:45:57;9.49;99.99
68251;DHT22;55066;51.560;4.642;2023-04-01T02:48:23;9.44;99.99
68251;DHT22;55066;51.560;4.642;2023-04-01T02:50:48;9.35;99.99
68251;DHT22;55066;51.560;4.642;2023-04-01T02:53:14;9.38;99.99
68251;DHT22;55066;51.560;4.642;2023-04-01T02:55:40;9.24;99.99
68251;DHT22;55066;51.560;4.642;2023-04-01T02:58:06;9.23;99.99
68251;DHT22;55066;51.560;4.642;2023-04-01T03:00:32;9.46;99.99
68251;DHT22;55066;51.560;4.642;2023-04-01T03:02:57;9.24;99.99
68251;DHT22;55066;51.560;4.642;2023-04-01T03:05:23;9.38;99.99
68251;DHT22;55066;51.560;4.642;2023-04-01T03:07:48;9.26;99.99
68251;DHT22;55066;51.560;4.642;2023-04-01T03:10:14;9.28;99.99
68251;DHT22;55066;51.560;4.642;2023-04-01T03:12:39;9.30;99.99
68251;DHT22;55066;51.560;4.642;2023-04-01T03:15:06;9.44;99.99
68251;DHT22;55066;51.560;4.642;2023-04-01T03:17:32;9.46;99.99
68251;DHT22;55066;51.560;4.642;2023-04-01T03:19:57;9.28;99.99
68251;DHT22;55066;51.560;4.642;2023-04-01T03:22:23;9.31;99.99
68251;DHT22;55066;51.560;4.642;2023-04-01T03:24:48;9.21;99.99
68251;DHT22;55066;51.560;4.642;2023-04-01T03:27:14;9.30;99.99
68251;DHT22;55066;51.560;4.642;2023-04-01T03:29:39;9.32;99.99
68251;DHT22;55066;51.560;4.642;2023-04-01T03:32:05;9.21;99.99
68251;DHT22;55066;51.560;4.642;2023-04-01T03:34:31;9.14;99.99
68251;DHT22;55066;51.560;4.642;2023-04-01T03:36:57;9.28;99.99
68251;DHT22;55066;51.560;4.642;2023-04-01T03:39:22;9.26;99.99
68251;DHT22;55066;51.560;4.642;2023-04-01T03:41:49;9.34;99.99
68251;DHT22;55066;51.560;4.642;2023-04-01T03:44:15;9.32;99.99
68251;DHT22;55066;51.560;4.642;2023-04-01T03:46:40;9.28;99.99
68251;DHT22;55066;51.560;4.642;2023-04-01T03:49:07;9.49;99.99
68251;DHT22;55066;51.560;4.642;2023-04-01T03:51:38;9.28;99.99
68251;DHT22;55066;51.560;4.642;2023-04-01T03:54:04;9.35;99.99
68251;DHT22;55066;51.560;4.642;2023-04-01T03:56:30;9.30;99.99
68251;DHT22;55066;51.560;4.642;2023-04-01T03:58:56;9.16;99.99
68251;DHT22;55066;51.560;4.642;2023-04-01T04:01:22;9.34;99.99
68251;DHT22;55066;51.560;4.642;2023-04-01T04:03:50;9.18;99.99
68251;DHT22;55066;51.560;4.642;2023-04-01T04:06:18;9.41;99.99
68251;DHT22;55066;51.560;4.642;2023-04-01T04:08:44;9.26;99.99
68251;DHT22;55066;51.560;4.642;2023-04-01T04:11:11;9.23;99.99
68251;DHT22;55066;51.560;4.642;2023-04-01T04:13:41;9.37;99.99
68251;DHT22;55066;51.560;4.642;2023-04-01T04:16:07;9.26;99.99
68251;DHT22;55066;51.560;4.642;2023-04-01T04:18:37;9.16;99.99
68251;DHT22;55066;51.560;4.642;2023-04-01T04:21:03;9.23;99.99
68251;DHT22;55066;51.560;4.642;2023-04-01T04:23:29;9.26;99.99
68251;DHT22;55066;51.560;4.642;2023-04-01T04:26:07;9.18;99.99
68251;DHT22;55066;51.560;4.642;2023-04-01T04:28:33;9.10;99.99
68251;DHT22;55066;51.560;4.642;2023-04-01T04:30:59;9.32;99.99
68251;DHT22;55066;51.560;4.642;2023-04-01T04:33:26;9.17;99.99
68251;DHT22;55066;51.560;4.642;2023-04-01T04:35:55;9.31;99.99
68251;DHT22;55066;51.560;4.642;2023-04-01T04:38:22;9.16;99.99
68251;DHT22;55066;51.560;4.642;2023-04-01T04:40:47;9.27;99.99
68251;DHT22;55066;51.560;4.642;2023-04-01T04:43:14;9.32;99.99
68251;DHT22;55066;51.560;4.642;2023-04-01T04:45:40;9.31;99.99
68251;DHT22;55066;51.560;4.642;2023-04-01T04:48:11;9.18;99.99
68251;DHT22;55066;51.560;4.642;2023-04-01T04:50:41;9.18;99.99
68251;DHT22;55066;51.560;4.642;2023-04-01T04:53:12;9.23;99.99
68251;DHT22;55066;51.560;4.642;2023-04-01T04:55:46;9.06;99.99
68251;DHT22;55066;51.560;4.642;2023-04-01T04:58:32;9.11;99.99
68251;DHT22;55066;51.560;4.642;2023-04-01T05:00:58;9.16;99.99
68251;DHT22;55066;51.560;4.642;2023-04-01T05:03:28;9.27;99.99
68251;DHT22;55066;51.560;4.642;2023-04-01T05:05:54;9.20;99.99
68251;DHT22;55066;51.560;4.642;2023-04-01T05:08:20;9.20;99.99
68251;DHT22;55066;51.560;4.642;2023-04-01T05:10:46;9.10;99.99
68251;DHT22;55066;51.560;4.642;2023-04-01T05:13:12;9.16;99.99
68251;DHT22;55066;51.560;4.642;2023-04-01T05:15:38;9.13;99.99
68251;DHT22;55066;51.560;4.642;2023-04-01T05:18:04;9.21;99.99
68251;DHT22;55066;51.560;4.642;2023-04-01T05:20:31;9.23;99.99
68251;DHT22;55066;51.560;4.642;2023-04-01T05:22:57;9.11;99.99
68251;DHT22;55066;51.560;4.642;2023-04-01T05:25:23;9.26;99.99
68251;DHT22;55066;51.560;4.642;2023-04-01T05:27:49;9.23;99.99
68251;DHT22;55066;51.560;4.642;2023-04-01T05:30:15;9.24;99.99
68251;DHT22;55066;51.560;4.642;2023-04-01T05:33:00;9.20;99.99
68251;DHT22;55066;51.560;4.642;2023-04-01T05:35:26;9.20;99.99
68251;DHT22;55066;51.560;4.642;2023-04-01T05:37:52;9.17;99.99
68251;DHT22;55066;51.560;4.642;2023-04-01T05:40:17;9.27;99.99
68251;DHT22;55066;51.560;4.642;2023-04-01T05:42:43;9.20;99.99
68251;DHT22;55066;51.560;4.642;2023-04-01T05:45:09;9.11;99.99
68251;DHT22;55066;51.560;4.642;2023-04-01T05:48:06;9.21;99.99
68251;DHT22;55066;51.560;4.642;2023-04-01T05:50:40;9.21;99.99
68251;DHT22;55066;51.560;4.642;2023-04-01T05:53:05;9.26;99.99
68251;DHT22;55066;51.560;4.642;2023-04-01T05:55:31;9.34;99.99
68251;DHT22;55066;51.560;4.642;2023-04-01T05:57:56;9.24;99.99
68251;DHT22;55066;51.560;4.642;2023-04-01T06:00:22;9.20;99.99
68251;DHT22;55066;51.560;4.642;2023-04-01T06:02:48;9.24;99.99
68251;DHT22;55066;51.560;4.642;2023-04-01T06:05:18;9.32;99.99
68251;DHT22;55066;51.560;4.642;2023-04-01T06:07:44;9.31;99.99
68251;DHT22;55066;51.560;4.642;2023-04-01T06:10:21;9.32;99.99
68251;DHT22;55066;51.560;4.642;2023-04-01T06:12:54;9.27;99.99
68251;DHT22;55066;51.560;4.642;2023-04-01T06:15:39;9.45;99.99
68251;DHT22;55066;51.560;4.642;2023-04-01T06:23:58;9.41;99.99
68251;DHT22;55066;51.560;4.642;2023-04-01T06:26:41;9.46;99.99
68251;DHT22;55066;51.560;4.642;2023-04-01T06:31:57;9.35;99.99
68251;DHT22;55066;51.560;4.642;2023-04-01T06:34:45;9.30;99.99
68251;DHT22;55066;51.560;4.642;2023-04-01T06:52:38;9.41;99.99
68251;DHT22;55066;51.560;4.642;2023-04-01T06:55:41;9.32;99.99
68251;DHT22;55066;51.560;4.642;2023-04-01T06:58:49;9.45;99.99
68251;DHT22;55066;51.560;4.642;2023-04-01T07:01:22;9.48;99.99
68251;DHT22;55066;51.560;4.642;2023-04-01T07:03:56;9.61;99.99
68251;DHT22;55066;51.560;4.642;2023-04-01T07:06:30;9.51;99.99
68251;DHT22;55066;51.560;4.642;2023-04-01T07:09:00;9.58;99.99
68251;DHT22;55066;51.560;4.642;2023-04-01T07:11:38;9.68;99.99
68251;DHT22;55066;51.560;4.642;2023-04-01T07:14:32;9.59;99.99
68251;DHT22;55066;51.560;4.642;2023-04-01T07:17:06;9.63;99.99
68251;DHT22;55066;51.560;4.642;2023-04-01T07:22:54;9.63;99.99
68251;DHT22;55066;51.560;4.642;2023-04-01T07:25:34;9.63;99.99
68251;DHT22;55066;51.560;4.642;2023-04-01T07:28:21;9.71;99.99
68251;DHT22;55066;51.560;4.642;2023-04-01T07:33:41;9.59;99.99
68251;DHT22;55066;51.560;4.642;2023-04-01T07:40:23;9.56;99.99
68251;DHT22;55066;51.560;4.642;2023-04-01T07:54:26;9.63;99.99
68251;DHT22;55066;51.560;4.642;2023-04-01T07:57:12;9.61;99.99
68251;DHT22;55066;51.560;4.642;2023-04-01T07:59:56;9.65;99.99
68251;DHT22;55066;51.560;4.642;2023-04-01T08:03:04;9.68;99.99
68251;DHT22;55066;51.560;4.642;2023-04-01T08:05:53;9.75;99.99
68251;DHT22;55066;51.560;4.642;2023-04-01T08:08:32;9.79;99.99
68251;DHT22;55066;51.560;4.642;2023-04-01T08:15:23;9.86;99.99
68251;DHT22;55066;51.560;4.642;2023-04-01T08:20:59;9.96;99.99
68251;DHT22;55066;51.560;4.642;2023-04-01T08:23:28;9.89;99.99
68251;DHT22;55066;51.560;4.642;2023-04-01T08:26:11;9.87;99.99
68251;DHT22;55066;51.560;4.642;2023-04-01T08:29:00;9.92;99.99
68251;DHT22;55066;51.560;4.642;2023-04-01T08:31:37;9.94;99.99
68251;DHT22;55066;51.560;4.642;2023-04-01T08:34:10;9.89;99.99
68251;DHT22;55066;51.560;4.642;2023-04-01T08:36:41;9.79;99.99
68251;DHT22;55066;51.560;4.642;2023-04-01T08:39:38;9.85;99.99
68251;DHT22;55066;51.560;4.642;2023-04-01T08:45:25;9.83;99.99
68251;DHT22;55066;51.560;4.642;2023-04-01T09:00:53;9.72;99.99
68251;DHT22;55066;51.560;4.642;2023-04-01T09:03:52;9.83;99.99
68251;DHT22;55066;51.560;4.642;2023-04-01T09:06:32;9.83;99.99
68251;DHT22;55066;51.560;4.642;2023-04-01T09:09:38;9.79;99.99
68251;DHT22;55066;51.560;4.642;2023-04-01T09:12:34;9.89;99.99
68251;DHT22;55066;51.560;4.642;2023-04-01T09:23:44;10.22;99.99
68251;DHT22;55066;51.560;4.642;2023-04-01T09:29:52;10.34;99.99
68251;DHT22;55066;51.560;4.642;2023-04-01T09:44:06;10.28;99.99
68251;DHT22;55066;51.560;4.642;2023-04-01T09:47:01;10.37;99.99
68251;DHT22;55066;51.560;4.642;2023-04-01T09:52:58;10.21;99.99
68251;DHT22;55066;51.560;4.642;2023-04-01T10:04:39;10.38;99.99
68251;DHT22;55066;51.560;4.642;2023-04-01T10:16:26;10.30;99.99
68251;DHT22;55066;51.560;4.642;2023-04-01T10:24:38;10.61;99.99
68251;DHT22;55066;51.560;4.642;2023-04-01T10:36:43;10.58;99.99
68251;DHT22;55066;51.560;4.642;2023-04-01T10:42:40;10.58;99.99
68251;DHT22;55066;51.560;4.642;2023-04-01T10:57:48;10.75;99.99
68251;DHT22;55066;51.560;4.642;2023-04-01T11:16:43;11.23;99.99
68251;DHT22;55066;51.560;4.642;2023-04-01T11:31:29;11.17;99.99
68251;DHT22;55066;51.560;4.642;2023-04-01T11:40:49;11.24;99.99
68251;DHT22;55066;51.560;4.642;2023-04-01T11:43:47;11.03;99.99
68251;DHT22;55066;51.560;4.642;2023-04-01T11:52:44;11.04;99.99
68251;DHT22;55066;51.560;4.642;2023-04-01T11:55:35;11.06;99.99
68251;DHT22;55066;51.560;4.642;2023-04-01T11:58:09;11.12;99.99
68251;DHT22;55066;51.560;4.642;2023-04-01T12:14:57;11.23;99.99
68251;DHT22;55066;51.560;4.642;2023-04-01T12:25:48;11.26;99.99
68251;DHT22;55066;51.560;4.642;2023-04-01T12:34:00;11.07;99.99
68251;DHT22;55066;51.560;4.642;2023-04-01T12:36:52;11.07;99.99
68251;DHT22;55066;51.560;4.642;2023-04-01T12:45:39;11.10;99.99
68251;DHT22;55066;51.560;4.642;2023-04-01T12:48:19;11.02;99.99
68251;DHT22;55066;51.560;4.642;2023-04-01T12:53:50;11.04;99.99
68251;DHT22;55066;51.560;4.642;2023-04-01T12:56:28;11.02;99.99
68251;DHT22;55066;51.560;4.642;2023-04-01T12:59:23;11.12;99.99
68251;DHT22;55066;51.560;4.642;2023-04-01T13:02:01;11.06;99.99
68251;DHT22;55066;51.560;4.642;2023-04-01T13:04:59;11.09;99.99
68251;DHT22;55066;51.560;4.642;2023-04-01T13:07:41;11.17;99.99
68251;DHT22;55066;51.560;4.642;2023-04-01T13:10:43;11.31;99.99
68251;DHT22;55066;51.560;4.642;2023-04-01T13:13:38;11.38;99.99
68251;DHT22;55066;51.560;4.642;2023-04-01T13:16:20;11.26;99.99
68251;DHT22;55066;51.560;4.642;2023-04-01T13:19:08;11.12;99.99
68251;DHT22;55066;51.560;4.642;2023-04-01T13:24:50;10.96;99.99
68251;DHT22;55066;51.560;4.642;2023-04-01T13:27:25;10.93;99.99
68251;DHT22;55066;51.560;4.642;2023-04-01T13:30:17;10.95;99.99
68251;DHT22;55066;51.560;4.642;2023-04-01T13:35:37;10.99;99.99
68251;DHT22;55066;51.560;4.642;2023-04-01T13:38:20;11.07;99.99
68251;DHT22;55066;51.560;4.642;2023-04-01T13:40:58;10.88;99.99
68251;DHT22;55066;51.560;4.642;2023-04-01T13:49:30;10.88;99.99
68251;DHT22;55066;51.560;4.642;2023-04-01T13:51:54;10.88;99.99
68251;DHT22;55066;51.560;4.642;2023-04-01T14:03:19;10.86;99.99
68251;DHT22;55066;51.560;4.642;2023-04-01T14:06:28;10.82;99.99
68251;DHT22;55066;51.560;4.642;2023-04-01T14:09:21;10.69;99.99
68251;DHT22;55066;51.560;4.642;2023-04-01T14:14:48;10.72;99.99
68251;DHT22;55066;51.560;4.642;2023-04-01T14:22:46;10.51;99.99
68251;DHT22;55066;51.560;4.642;2023-04-01T14:31:12;10.62;99.99
68251;DHT22;55066;51.560;4.642;2023-04-01T14:33:50;10.66;99.99
68251;DHT22;55066;51.560;4.642;2023-04-01T14:36:34;10.71;99.99
68251;DHT22;55066;51.560;4.642;2023-04-01T14:48:00;10.75;99.99
68251;DHT22;55066;51.560;4.642;2023-04-01T14:50:41;10.68;99.99
68251;DHT22;55066;51.560;4.642;2023-04-01T14:55:58;10.55;99.99
68251;DHT22;55066;51.560;4.642;2023-04-01T14:58:45;10.64;99.99
68251;DHT22;55066;51.560;4.642;2023-04-01T15:01:35;10.47;99.99
68251;DHT22;55066;51.560;4.642;2023-04-01T15:04:41;10.62;99.99
68251;DHT22;55066;51.560;4.642;2023-04-01T15:09:56;10.65;99.99
68251;DHT22;55066;51.560;4.642;2023-04-01T15:12:29;10.68;99.99
68251;DHT22;55066;51.560;4.642;2023-04-01T15:18:11;10.58;99.99
68251;DHT22;55066;51.560;4.642;2023-04-01T15:21:41;10.57;99.99
68251;DHT22;55066;51.560;4.642;2023-04-01T15:34:53;10.45;99.99
68251;DHT22;55066;51.560;4.642;2023-04-01T15:39:57;10.42;99.99
68251;DHT22;55066;51.560;4.642;2023-04-01T15:50:21;10.48;99.99
68251;DHT22;55066;51.560;4.642;2023-04-01T15:53:11;10.47;99.99
68251;DHT22;55066;51.560;4.642;2023-04-01T15:55:57;10.47;99.99
68251;DHT22;55066;51.560;4.642;2023-04-01T15:58:57;10.33;99.99
68251;DHT22;55066;51.560;4.642;2023-04-01T16:01:27;10.48;99.99
68251;DHT22;55066;51.560;4.642;2023-04-01T16:09:35;10.28;99.99
68251;DHT22;55066;51.560;4.642;2023-04-01T16:12:18;10.36;99.99
68251;DHT22;55066;51.560;4.642;2023-04-01T16:14:54;10.22;99.99
68251;DHT22;55066;51.560;4.642;2023-04-01T16:20:18;10.25;99.99
68251;DHT22;55066;51.560;4.642;2023-04-01T16:25:46;10.16;99.99
68251;DHT22;55066;51.560;4.642;2023-04-01T16:28:24;10.09;99.99
68251;DHT22;55066;51.560;4.642;2023-04-01T16:31:09;10.20;99.99
68251;DHT22;55066;51.560;4.642;2023-04-01T16:33:49;10.11;99.99
68251;DHT22;55066;51.560;4.642;2023-04-01T16:42:53;10.14;99.99
68251;DHT22;55066;51.560;4.642;2023-04-01T16:45:45;10.00;99.99
68251;DHT22;55066;51.560;4.642;2023-04-01T16:51:16;10.06;99.99
68251;DHT22;55066;51.560;4.642;2023-04-01T16:53:48;10.03;99.99
68251;DHT22;55066;51.560;4.642;2023-04-01T16:56:27;10.00;99.99
68251;DHT22;55066;51.560;4.642;2023-04-01T16:59:14;10.07;99.99
68251;DHT22;55066;51.560;4.642;2023-04-01T17:01:53;9.97;99.99
68251;DHT22;55066;51.560;4.642;2023-04-01T17:07:04;10.04;99.99
68251;DHT22;55066;51.560;4.642;2023-04-01T17:13:05;10.11;99.99
68251;DHT22;55066;51.560;4.642;2023-04-01T17:22:02;10.03;99.99
68251;DHT22;55066;51.560;4.642;2023-04-01T17:27:45;10.07;99.99
68251;DHT22;55066;51.560;4.642;2023-04-01T17:30:31;10.09;99.99
68251;DHT22;55066;51.560;4.642;2023-04-01T17:33:21;9.96;99.99
68251;DHT22;55066;51.560;4.642;2023-04-01T17:39:05;10.07;99.99
68251;DHT22;55066;51.560;4.642;2023-04-01T17:41:54;10.02;99.99
68251;DHT22;55066;51.560;4.642;2023-04-01T17:50:19;10.06;99.99
68251;DHT22;55066;51.560;4.642;2023-04-01T17:58:50;9.92;99.99
68251;DHT22;55066;51.560;4.642;2023-04-01T18:01:23;9.87;99.99
68251;DHT22;55066;51.560;4.642;2023-04-01T18:07:06;9.75;99.99
68251;DHT22;55066;51.560;4.642;2023-04-01T18:09:50;9.79;99.99
68251;DHT22;55066;51.560;4.642;2023-04-01T18:12:32;9.71;99.99
68251;DHT22;55066;51.560;4.642;2023-04-01T18:20:46;9.76;99.99
68251;DHT22;55066;51.560;4.642;2023-04-01T18:23:43;9.73;99.99
68251;DHT22;55066;51.560;4.642;2023-04-01T18:26:22;9.69;99.99
68251;DHT22;55066;51.560;4.642;2023-04-01T18:28:56;9.75;99.99
68251;DHT22;55066;51.560;4.642;2023-04-01T18:31:34;9.81;99.99
68251;DHT22;55066;51.560;4.642;2023-04-01T18:34:07;9.73;99.99
68251;DHT22;55066;51.560;4.642;2023-04-01T18:36:49;9.76;99.99
68251;DHT22;55066;51.560;4.642;2023-04-01T18:39:17;9.76;99.99
68251;DHT22;55066;51.560;4.642;2023-04-01T18:44:29;9.79;99.99
68251;DHT22;55066;51.560;4.642;2023-04-01T18:52:34;9.66;99.99
68251;DHT22;55066;51.560;4.642;2023-04-01T18:57:52;9.52;99.99
68251;DHT22;55066;51.560;4.642;2023-04-01T19:00:21;9.48;99.99
68251;DHT22;55066;51.560;4.642;2023-04-01T19:03:11;9.58;99.99
68251;DHT22;55066;51.560;4.642;2023-04-01T19:05:44;9.56;99.99
68251;DHT22;55066;51.560;4.642;2023-04-01T19:08:31;9.51;99.99
68251;DHT22;55066;51.560;4.642;2023-04-01T19:11:12;9.58;99.99
68251;DHT22;55066;51.560;4.642;2023-04-01T19:25:54;9.35;99.99
68251;DHT22;55066;51.560;4.642;2023-04-01T19:29:03;9.45;99.99
68251;DHT22;55066;51.560;4.642;2023-04-01T19:31:47;9.23;99.99
68251;DHT22;55066;51.560;4.642;2023-04-01T19:37:33;9.23;99.99
68251;DHT22;55066;51.560;4.642;2023-04-01T19:51:14;9.17;99.99
68251;DHT22;55066;51.560;4.642;2023-04-01T20:00:07;9.13;99.99
68251;DHT22;55066;51.560;4.642;2023-04-01T20:02:56;9.04;99.99
68251;DHT22;55066;51.560;4.642;2023-04-01T20:13:52;9.13;99.99
68251;DHT22;55066;51.560;4.642;2023-04-01T20:16:20;9.13;99.99
68251;DHT22;55066;51.560;4.642;2023-04-01T20:19:00;9.17;99.99
68251;DHT22;55066;51.560;4.642;2023-04-01T20:21:42;9.07;99.99
68251;DHT22;55066;51.560;4.642;2023-04-01T20:24:31;9.06;99.99
68251;DHT22;55066;51.560;4.642;2023-04-01T20:27:08;9.08;99.99
68251;DHT22;55066;51.560;4.642;2023-04-01T20:32:33;8.97;99.99
68251;DHT22;55066;51.560;4.642;2023-04-01T20:35:25;8.97;99.99
68251;DHT22;55066;51.560;4.642;2023-04-01T20:41:02;8.89;99.99
68251;DHT22;55066;51.560;4.642;2023-04-01T20:47:14;8.97;99.99
68251;DHT22;55066;51.560;4.642;2023-04-01T20:52:57;8.90;99.99
68251;DHT22;55066;51.560;4.642;2023-04-01T20:55:52;8.91;99.99
68251;DHT22;55066;51.560;4.642;2023-04-01T21:14:56;8.65;99.99
68251;DHT22;55066;51.560;4.642;2023-04-01T21:17:42;8.61;99.99
68251;DHT22;55066;51.560;4.642;2023-04-01T21:32:04;8.61;99.99
68251;DHT22;55066;51.560;4.642;2023-04-01T21:37:49;8.66;99.99
68251;DHT22;55066;51.560;4.642;2023-04-01T22:00:35;8.24;99.99
68251;DHT22;55066;51.560;4.642;2023-04-01T22:06:38;8.08;99.99
68251;DHT22;55066;51.560;4.642;2023-04-01T22:09:15;8.11;99.99
68251;DHT22;55066;51.560;4.642;2023-04-01T22:12:02;8.08;99.99
68251;DHT22;55066;51.560;4.642;2023-04-01T22:14:49;8.10;99.99
68251;DHT22;55066;51.560;4.642;2023-04-01T22:17:40;8.04;99.99
68251;DHT22;55066;51.560;4.642;2023-04-01T22:23:13;8.04;99.99
68251;DHT22;55066;51.560;4.642;2023-04-01T22:28:31;8.13;99.99
68251;DHT22;55066;51.560;4.642;2023-04-01T22:31:02;8.07;99.99
68251;DHT22;55066;51.560;4.642;2023-04-01T22:33:56;7.98;99.99
68251;DHT22;55066;51.560;4.642;2023-04-01T22:39:06;7.87;99.99
68251;DHT22;55066;51.560;4.642;2023-04-01T22:42:06;7.80;99.99
68251;DHT22;55066;51.560;4.642;2023-04-01T22:47:30;7.76;99.99
68251;DHT22;55066;51.560;4.642;2023-04-01T22:53:37;7.69;99.99
68251;DHT22;55066;51.560;4.642;2023-04-01T22:55:54;7.76;99.99
68251;DHT22;55066;51.560;4.642;2023-04-01T22:58:47;7.65;99.99
68251;DHT22;55066;51.560;4.642;2023-04-01T23:01:30;7.62;99.99
68251;DHT22;55066;51.560;4.642;2023-04-01T23:03:58;7.70;99.99
68251;DHT22;55066;51.560;4.642;2023-04-01T23:06:36;7.87;99.99
68251;DHT22;55066;51.560;4.642;2023-04-01T23:09:23;7.69;99.99
68251;DHT22;55066;51.560;4.642;2023-04-01T23:11:53;7.58;99.99
68251;DHT22;55066;51.560;4.642;2023-04-01T23:17:05;7.62;99.99
68251;DHT22;55066;51.560;4.642;2023-04-01T23:27:54;7.35;99.99
68251;DHT22;55066;51.560;4.642;2023-04-01T23:36:11;7.25;99.99
68251;DHT22;55066;51.560;4.642;2023-04-01T23:38:42;7.18;99.99
68251;DHT22;55066;51.560;4.642;2023-04-01T23:41:30;7.25;99.99
68251;DHT22;55066;51.560;4.642;2023-04-01T23:44:04;7.25;99.99
68251;DHT22;55066;51.560;4.642;2023-04-01T23:46:33;7.38;99.99
68251;DHT22;55066;51.560;4.642;2023-04-01T23:49:13;7.29;99.99
68251;DHT22;55066;51.560;4.642;2023-04-01T23:51:59;7.21;99.99
68251;DHT22;55066;51.560;4.642;2023-04-01T23:54:38;7.25;99.99
68251;DHT22;55066;51.560;4.642;2023-04-01T23:57:18;7.25;99.99
